Time;durP1;ratioP1;P1;durP2;ratioP2;P2;SDS_P1;SDS_P2;PMS_P1;PMS_P2;Temp;Humidity;BMP_temperature;BMP_pressure;BME280_temperature;BME280_humidity;BME280_pressure;Samples;Min_cycle;Max_cycle;Signal;HPM_P1;HPM_P2
2022/11/17 00:00:18;;;;;;;35.33;14.27;;;;;;;;;;5077030;28;20385;-74
2022/11/17 00:02:44;;;;;;;29.77;14.17;;;;;;;;;;5061750;28;20050;-75
2022/11/17 00:05:10;;;;;;;33.33;14.67;;;;;;;;;;5061523;28;20035;-76
2022/11/17 00:07:36;;;;;;;30.60;13.70;;;;;;;;;;5078128;28;20131;-75
2022/11/17 00:10:02;;;;;;;36.10;13.83;;;;;;;;;;5061679;28;20438;-74
2022/11/17 00:15:13;;;;;;;32.67;13.87;;;;;;;;;;5094829;28;20043;-74
2022/11/17 00:17:38;;;;;;;28.73;13.53;;;;;;;;;;5077782;28;20028;-74
2022/11/17 00:22:48;;;;;;;31.07;13.60;;;;;;;;;;5078060;28;20031;-73
2022/11/17 00:25:14;;;;;;;32.57;13.67;;;;;;;;;;5061224;28;20438;-73
2022/11/17 00:27:40;;;;;;;25.57;13.27;;;;;;;;;;5060642;28;20085;-74
2022/11/17 00:30:06;;;;;;;34.87;14.20;;;;;;;;;;5112583;28;20043;-74
2022/11/17 00:35:17;;;;;;;33.73;14.13;;;;;;;;;;5094987;28;20031;-73
2022/11/17 00:38:14;;;;;;;34.30;14.60;;;;;;;;;;5060965;28;20031;-72
2022/11/17 00:40:29;;;;;;;31.07;15.03;;;;;;;;;;5077698;28;20031;-73
2022/11/17 00:42:54;;;;;;;31.97;13.97;;;;;;;;;;5077768;28;20373;-72
2022/11/17 00:45:20;;;;;;;28.83;12.97;;;;;;;;;;5061291;28;20066;-72
2022/11/17 00:47:46;;;;;;;28.13;12.70;;;;;;;;;;5060978;28;20122;-73
2022/11/17 00:50:12;;;;;;;23.67;11.77;;;;;;;;;;5077641;28;20130;-72
2022/11/17 00:52:37;;;;;;;31.10;13.20;;;;;;;;;;5077506;28;20435;-74
2022/11/17 00:55:03;;;;;;;29.50;12.63;;;;;;;;;;5059661;28;20023;-75
2022/11/17 00:57:29;;;;;;;22.97;11.93;;;;;;;;;;5060389;28;20566;-75
2022/11/17 00:59:55;;;;;;;29.20;14.23;;;;;;;;;;5077586;28;20232;-74
2022/11/17 01:02:20;;;;;;;22.70;11.43;;;;;;;;;;5061049;28;20130;-74
2022/11/17 01:04:46;;;;;;;27.80;13.00;;;;;;;;;;5077660;28;20036;-74
2022/11/17 01:07:11;;;;;;;28.00;12.80;;;;;;;;;;5077278;28;20472;-73
2022/11/17 01:09:38;;;;;;;31.23;13.03;;;;;;;;;;5057609;28;20043;-73
2022/11/17 01:12:04;;;;;;;31.67;13.37;;;;;;;;;;5057156;28;20028;-73
2022/11/17 01:14:31;;;;;;;26.20;12.47;;;;;;;;;;5040631;28;20127;-73
2022/11/17 01:16:57;;;;;;;27.07;11.80;;;;;;;;;;5042142;28;20032;-74
2022/11/17 01:19:22;;;;;;;25.63;12.50;;;;;;;;;;5093023;28;20062;-74
2022/11/17 01:21:48;;;;;;;27.93;13.07;;;;;;;;;;5058401;28;20034;-73
2022/11/17 01:24:15;;;;;;;29.37;12.77;;;;;;;;;;5058358;28;20054;-73
2022/11/17 01:26:41;;;;;;;24.80;12.67;;;;;;;;;;5058285;28;20058;-73
2022/11/17 01:29:07;;;;;;;27.37;13.40;;;;;;;;;;5058114;28;20585;-73
2022/11/17 01:31:35;;;;;;;30.30;13.50;;;;;;;;;;5058133;28;20496;-73
2022/11/17 01:34:00;;;;;;;33.03;14.23;;;;;;;;;;5091787;28;20042;-73
2022/11/17 01:37:17;;;;;;;32.57;13.33;;;;;;;;;;5059865;28;20031;-73
2022/11/17 01:39:16;;;;;;;30.07;12.60;;;;;;;;;;5097691;28;20036;-73
2022/11/17 01:41:41;;;;;;;26.20;12.50;;;;;;;;;;5064250;28;20538;-72
2022/11/17 01:44:26;;;;;;;27.83;12.10;;;;;;;;;;5081001;28;20373;-72
2022/11/17 01:46:51;;;;;;;26.30;11.87;;;;;;;;;;5080582;28;20051;-74
2022/11/17 01:49:20;;;;;;;30.53;12.73;;;;;;;;;;5064028;28;20035;-73
2022/11/17 01:51:54;;;;;;;27.13;12.57;;;;;;;;;;5064204;28;20035;-74
2022/11/17 01:54:20;;;;;;;23.83;11.73;;;;;;;;;;5064296;28;20059;-74
2022/11/17 01:56:48;;;;;;;25.03;12.20;;;;;;;;;;5063662;28;20087;-73
2022/11/17 01:59:17;;;;;;;25.73;11.47;;;;;;;;;;5064026;28;20039;-73
2022/11/17 02:01:54;;;;;;;28.80;12.53;;;;;;;;;;5080725;28;20040;-73
2022/11/17 02:04:24;;;;;;;26.63;12.03;;;;;;;;;;5064257;28;20040;-73
2022/11/17 02:06:52;;;;;;;27.42;12.45;;;;;;;;;;5115752;28;20131;-72
2022/11/17 02:09:18;;;;;;;26.93;13.13;;;;;;;;;;5080592;28;20067;-72
2022/11/17 02:11:44;;;;;;;27.17;12.33;;;;;;;;;;5063591;28;20067;-72
2022/11/17 02:14:10;;;;;;;27.40;12.60;;;;;;;;;;5063331;28;20039;-73
2022/11/17 02:16:36;;;;;;;26.00;12.50;;;;;;;;;;5063696;28;20120;-74
2022/11/17 02:19:02;;;;;;;28.67;12.83;;;;;;;;;;5080307;28;20053;-75
2022/11/17 02:21:39;;;;;;;28.17;12.90;;;;;;;;;;5063628;28;20039;-75
2022/11/17 02:24:04;;;;;;;32.63;13.33;;;;;;;;;;5079961;28;20053;-73
2022/11/17 02:26:47;;;;;;;19.70;10.47;;;;;;;;;;5080007;28;20048;-74
2022/11/17 02:29:32;;;;;;;28.50;12.20;;;;;;;;;;5097354;28;20036;-71
2022/11/17 02:32:27;;;;;;;29.33;12.07;;;;;;;;;;5063390;28;20455;-74
2022/11/17 02:35:08;;;;;;;25.27;10.97;;;;;;;;;;4992522;28;20504;-75
2022/11/17 02:37:40;;;;;;;28.48;12.40;;;;;;;;;;5063564;28;20038;-73
2022/11/17 02:40:35;;;;;;;24.80;12.00;;;;;;;;;;5063015;28;20061;-73
2022/11/17 02:46:13;;;;;;;26.53;12.17;;;;;;;;;;4979975;28;20049;-75
2022/11/17 02:48:53;;;;;;;23.97;11.50;;;;;;;;;;5079397;28;20308;-71
2022/11/17 02:51:20;;;;;;;27.67;12.50;;;;;;;;;;5096629;28;20070;-74
2022/11/17 02:53:49;;;;;;;21.90;11.87;;;;;;;;;;5062846;28;20465;-74
2022/11/17 02:56:15;;;;;;;25.53;11.73;;;;;;;;;;5079535;28;20056;-73
2022/11/17 02:58:40;;;;;;;23.77;12.23;;;;;;;;;;5079643;28;20185;-72
2022/11/17 03:01:27;;;;;;;27.87;11.63;;;;;;;;;;5079422;28;20134;-72
2022/11/17 03:03:53;;;;;;;22.80;11.87;;;;;;;;;;5079500;28;20039;-74
2022/11/17 03:06:19;;;;;;;23.67;12.17;;;;;;;;;;5096258;28;20043;-73
2022/11/17 03:08:56;;;;;;;24.17;11.77;;;;;;;;;;5058697;28;20043;-74
2022/11/17 03:11:25;;;;;;;30.80;12.77;;;;;;;;;;5092528;28;20040;-72
2022/11/17 03:13:57;;;;;;;21.37;11.40;;;;;;;;;;5058943;28;20128;-72
2022/11/17 03:16:33;;;;;;;31.27;12.63;;;;;;;;;;5075594;28;20082;-72
2022/11/17 03:19:10;;;;;;;29.33;12.10;;;;;;;;;;5076094;28;20032;-74
2022/11/17 03:21:55;;;;;;;21.73;11.47;;;;;;;;;;5075692;28;20039;-73
2022/11/17 03:24:22;;;;;;;24.40;12.10;;;;;;;;;;5058722;28;20051;-73
2022/11/17 03:26:54;;;;;;;31.53;12.07;;;;;;;;;;5058569;28;20039;-73
2022/11/17 03:29:21;;;;;;;25.77;11.63;;;;;;;;;;5075007;28;20063;-73
2022/11/17 03:31:49;;;;;;;27.17;12.87;;;;;;;;;;5058668;28;20422;-73
2022/11/17 03:34:17;;;;;;;25.77;12.13;;;;;;;;;;5075305;28;20397;-73
2022/11/17 03:36:46;;;;;;;23.53;11.57;;;;;;;;;;5091926;28;20036;-74
2022/11/17 03:39:15;;;;;;;24.43;12.27;;;;;;;;;;5092187;28;20121;-73
2022/11/17 03:41:43;;;;;;;25.60;12.97;;;;;;;;;;5075351;28;20082;-73
2022/11/17 03:44:08;;;;;;;29.80;13.27;;;;;;;;;;5041800;28;20031;-73
2022/11/17 03:46:35;;;;;;;26.80;12.63;;;;;;;;;;5075092;28;20554;-73
2022/11/17 03:49:10;;;;;;;28.10;13.70;;;;;;;;;;5091832;28;20131;-76
2022/11/17 03:51:37;;;;;;;27.47;12.97;;;;;;;;;;5074662;28;20039;-75
2022/11/17 03:54:02;;;;;;;31.77;13.47;;;;;;;;;;5074787;28;20032;-74
2022/11/17 03:56:41;;;;;;;29.23;14.53;;;;;;;;;;5092720;28;20096;-75
2022/11/17 03:59:09;;;;;;;27.13;14.20;;;;;;;;;;5075893;28;20040;-73
2022/11/17 04:01:35;;;;;;;29.50;13.93;;;;;;;;;;5074378;28;20059;-73
2022/11/17 04:04:01;;;;;;;27.60;13.43;;;;;;;;;;5058696;28;20497;-71
2022/11/17 04:06:26;;;;;;;29.27;14.07;;;;;;;;;;5092795;28;20063;-71
2022/11/17 04:08:52;;;;;;;29.17;13.53;;;;;;;;;;5074820;28;20055;-72
2022/11/17 04:16:46;;;;;;;33.40;13.93;;;;;;;;;;5074362;28;20071;-72
2022/11/17 04:19:12;;;;;;;30.57;13.93;;;;;;;;;;5057945;28;20088;-72
2022/11/17 04:21:38;;;;;;;28.87;13.67;;;;;;;;;;5057787;28;20443;-67
2022/11/17 04:24:03;;;;;;;33.17;14.73;;;;;;;;;;5057798;28;20032;-69
2022/11/17 04:29:14;;;;;;;28.43;13.43;;;;;;;;;;5074249;28;20040;-67
2022/11/17 04:31:41;;;;;;;27.57;12.90;;;;;;;;;;5074266;28;20394;-68
2022/11/17 04:34:15;;;;;;;26.57;14.07;;;;;;;;;;5057890;28;20058;-68
2022/11/17 04:36:43;;;;;;;26.20;13.17;;;;;;;;;;5074389;28;20092;-72
2022/11/17 04:39:20;;;;;;;25.93;14.10;;;;;;;;;;5058485;28;20062;-68
2022/11/17 04:42:02;;;;;;;26.40;14.00;;;;;;;;;;5074183;28;20042;-67
2022/11/17 04:44:31;;;;;;;30.87;14.07;;;;;;;;;;5057613;28;20064;-67
2022/11/17 04:47:02;;;;;;;26.27;13.70;;;;;;;;;;5091042;28;20059;-67
2022/11/17 04:49:29;;;;;;;28.97;14.50;;;;;;;;;;5094080;28;20173;-67
2022/11/17 04:51:55;;;;;;;39.03;15.70;;;;;;;;;;5057523;28;20042;-66
2022/11/17 04:54:25;;;;;;;37.87;16.03;;;;;;;;;;5073947;28;20036;-66
2022/11/17 04:56:51;;;;;;;39.10;15.98;;;;;;;;;;5091592;28;20204;-66
2022/11/17 04:59:18;;;;;;;39.77;17.20;;;;;;;;;;5073858;28;20088;-66
2022/11/17 05:01:43;;;;;;;41.27;17.40;;;;;;;;;;5091124;28;20182;-67
2022/11/17 05:04:11;;;;;;;33.37;15.70;;;;;;;;;;5072946;28;20603;-67
2022/11/17 05:06:38;;;;;;;44.53;15.47;;;;;;;;;;5080610;28;20054;-66
2022/11/17 05:09:08;;;;;;;32.37;15.93;;;;;;;;;;5091590;28;20507;-67
2022/11/17 05:14:20;;;;;;;34.67;15.70;;;;;;;;;;5078894;28;20470;-67
2022/11/17 05:17:04;;;;;;;34.87;16.63;;;;;;;;;;5078883;28;20036;-67
2022/11/17 05:19:46;;;;;;;36.27;15.30;;;;;;;;;;5081030;28;20085;-67
2022/11/17 05:24:56;;;;;;;38.50;14.90;;;;;;;;;;5080751;28;20378;-67
2022/11/17 05:27:22;;;;;;;35.37;16.03;;;;;;;;;;5063750;28;20044;-66
2022/11/17 05:29:48;;;;;;;31.20;15.53;;;;;;;;;;5063501;28;20035;-67
2022/11/17 05:32:14;;;;;;;38.23;16.17;;;;;;;;;;5063796;28;20036;-67
2022/11/17 05:34:39;;;;;;;34.13;15.40;;;;;;;;;;5063724;28;20027;-67
2022/11/17 05:37:07;;;;;;;36.43;15.43;;;;;;;;;;5063778;28;20457;-68
2022/11/17 05:39:32;;;;;;;32.90;15.40;;;;;;;;;;5064141;28;20485;-67
2022/11/17 05:41:58;;;;;;;32.37;15.40;;;;;;;;;;5063507;28;20035;-67
2022/11/17 05:44:23;;;;;;;39.07;15.60;;;;;;;;;;5063401;28;20035;-66
2022/11/17 05:46:49;;;;;;;34.90;15.10;;;;;;;;;;5063228;28;20519;-66
2022/11/17 05:49:15;;;;;;;35.20;16.40;;;;;;;;;;5063397;28;20030;-66
2022/11/17 05:51:40;;;;;;;46.80;16.17;;;;;;;;;;5063760;28;20036;-67
2022/11/17 05:54:06;;;;;;;45.77;15.97;;;;;;;;;;5063406;28;20040;-68
2022/11/17 05:56:31;;;;;;;41.43;15.43;;;;;;;;;;5080142;28;20086;-66
2022/11/17 05:59:01;;;;;;;54.50;17.97;;;;;;;;;;5063107;28;20048;-66
2022/11/17 06:01:27;;;;;;;32.97;16.10;;;;;;;;;;5078799;28;20140;-67
2022/11/17 06:03:54;;;;;;;34.93;15.23;;;;;;;;;;5063088;28;20093;-66
2022/11/17 06:06:20;;;;;;;37.93;15.50;;;;;;;;;;5063387;28;20134;-67
2022/11/17 06:08:46;;;;;;;31.07;15.27;;;;;;;;;;5062922;28;20134;-67
2022/11/17 06:11:12;;;;;;;45.60;14.00;;;;;;;;;;5062717;28;20035;-67
2022/11/17 06:13:38;;;;;;;24.30;12.70;;;;;;;;;;5096213;28;20051;-68
2022/11/17 06:16:06;;;;;;;17.07;10.47;;;;;;;;;;5063107;28;20070;-68
2022/11/17 06:18:34;;;;;;;21.00;11.10;;;;;;;;;;5063570;28;20048;-68
2022/11/17 06:21:00;;;;;;;19.90;10.23;;;;;;;;;;5096731;28;20042;-68
2022/11/17 06:23:27;;;;;;;21.40;10.13;;;;;;;;;;5062252;28;20024;-67
2022/11/17 06:25:52;;;;;;;19.33;10.23;;;;;;;;;;5062394;28;20039;-67
2022/11/17 06:28:19;;;;;;;27.30;11.27;;;;;;;;;;5062874;28;20032;-66
2022/11/17 06:30:45;;;;;;;19.17;11.13;;;;;;;;;;5062565;28;20027;-67
2022/11/17 06:33:13;;;;;;;22.03;11.80;;;;;;;;;;5062595;28;20031;-67
2022/11/17 06:35:39;;;;;;;22.17;10.93;;;;;;;;;;5062571;28;20046;-67
2022/11/17 06:38:04;;;;;;;19.93;10.30;;;;;;;;;;5114115;28;20126;-67
2022/11/17 06:40:30;;;;;;;16.97;8.40;;;;;;;;;;5062661;28;20130;-67
2022/11/17 06:43:11;;;;;;;15.93;8.70;;;;;;;;;;5095766;28;20039;-66
2022/11/17 06:45:38;;;;;;;19.13;9.48;;;;;;;;;;5079155;28;20047;-67
2022/11/17 06:48:04;;;;;;;19.57;9.70;;;;;;;;;;5062782;28;20385;-67
2022/11/17 06:50:30;;;;;;;22.17;9.97;;;;;;;;;;5079347;28;20032;-66
2022/11/17 06:53:00;;;;;;;17.50;9.37;;;;;;;;;;5062236;28;20053;-67
2022/11/17 06:55:26;;;;;;;16.77;8.73;;;;;;;;;;5062162;28;20133;-67
2022/11/17 06:57:56;;;;;;;14.53;8.83;;;;;;;;;;5095277;28;20150;-67
2022/11/17 07:00:22;;;;;;;13.35;8.27;;;;;;;;;;5062012;28;20044;-67
2022/11/17 07:02:47;;;;;;;11.27;6.37;;;;;;;;;;5062126;28;20039;-67
2022/11/17 07:05:13;;;;;;;14.00;7.67;;;;;;;;;;5062086;28;20032;-67
2022/11/17 07:07:39;;;;;;;14.77;7.63;;;;;;;;;;5061758;28;20043;-67
2022/11/17 07:10:04;;;;;;;15.73;8.30;;;;;;;;;;5062108;28;20084;-65
2022/11/17 07:12:31;;;;;;;16.70;8.00;;;;;;;;;;5094724;28;20035;-65
2022/11/17 07:14:58;;;;;;;20.37;9.60;;;;;;;;;;5078761;28;20373;-66
2022/11/17 07:17:24;;;;;;;20.40;9.13;;;;;;;;;;5078591;28;20047;-66
2022/11/17 07:19:49;;;;;;;19.87;9.83;;;;;;;;;;5062100;28;20044;-67
2022/11/17 07:22:15;;;;;;;18.57;10.10;;;;;;;;;;5078363;28;20440;-67
2022/11/17 07:24:40;;;;;;;22.50;10.67;;;;;;;;;;5061704;28;20031;-68
2022/11/17 07:27:06;;;;;;;23.80;10.73;;;;;;;;;;5077977;28;20040;-69
2022/11/17 07:29:32;;;;;;;27.93;11.33;;;;;;;;;;5062024;28;20454;-68
2022/11/17 07:31:58;;;;;;;17.53;8.90;;;;;;;;;;5061606;28;20039;-68
2022/11/17 07:34:23;;;;;;;15.90;8.10;;;;;;;;;;5095514;28;20468;-69
2022/11/17 07:36:49;;;;;;;22.60;8.73;;;;;;;;;;5060390;28;20465;-68
2022/11/17 07:39:14;;;;;;;22.10;9.47;;;;;;;;;;5094890;28;20538;-68
2022/11/17 07:41:40;;;;;;;20.60;9.10;;;;;;;;;;5061624;28;20045;-69
2022/11/17 07:44:06;;;;;;;20.93;9.70;;;;;;;;;;5060666;28;20035;-69
2022/11/17 07:46:31;;;;;;;19.87;9.30;;;;;;;;;;5066217;28;20047;-68
2022/11/17 07:48:57;;;;;;;18.27;9.50;;;;;;;;;;5066726;28;20043;-68
2022/11/17 07:51:22;;;;;;;17.30;8.13;;;;;;;;;;5049381;28;20066;-68
2022/11/17 07:53:48;;;;;;;10.80;6.50;;;;;;;;;;5048231;28;20023;-68
2022/11/17 07:56:14;;;;;;;12.40;6.50;;;;;;;;;;5050110;28;20055;-68
2022/11/17 07:58:40;;;;;;;16.43;7.50;;;;;;;;;;5048840;28;20336;-68
2022/11/17 08:01:14;;;;;;;14.50;7.80;;;;;;;;;;5052868;28;20027;-67
2022/11/17 08:03:41;;;;;;;17.63;8.60;;;;;;;;;;5067977;28;20032;-71
2022/11/17 08:06:08;;;;;;;14.67;8.57;;;;;;;;;;5050181;28;20043;-68
2022/11/17 08:08:34;;;;;;;16.87;8.80;;;;;;;;;;5048758;28;20055;-70
2022/11/17 08:11:03;;;;;;;19.53;8.97;;;;;;;;;;5050229;28;20074;-68
2022/11/17 08:13:29;;;;;;;17.57;8.67;;;;;;;;;;5092947;28;20465;-68
2022/11/17 08:15:56;;;;;;;20.43;9.77;;;;;;;;;;5060353;28;20045;-68
2022/11/17 08:18:24;;;;;;;13.33;7.90;;;;;;;;;;5094206;28;20521;-67
2022/11/17 08:20:52;;;;;;;13.13;6.83;;;;;;;;;;5077154;28;20035;-67
2022/11/17 08:23:17;;;;;;;7.17;4.97;;;;;;;;;;5058795;28;20035;-67
2022/11/17 08:25:43;;;;;;;11.17;6.00;;;;;;;;;;5065686;28;20373;-68
2022/11/17 08:28:09;;;;;;;10.77;5.70;;;;;;;;;;5065070;28;20032;-67
2022/11/17 08:30:34;;;;;;;9.10;5.23;;;;;;;;;;5067067;28;20035;-68
2022/11/17 08:33:00;;;;;;;10.63;5.33;;;;;;;;;;5048333;28;20472;-69
2022/11/17 08:35:27;;;;;;;10.93;5.85;;;;;;;;;;5065888;28;20480;-67
2022/11/17 08:37:52;;;;;;;8.63;5.32;;;;;;;;;;5064260;28;20140;-67
2022/11/17 08:40:18;;;;;;;11.85;5.80;;;;;;;;;;5067010;28;20118;-67
2022/11/17 08:42:44;;;;;;;10.98;5.72;;;;;;;;;;5063385;28;20031;-67
2022/11/17 08:45:10;;;;;;;11.57;5.43;;;;;;;;;;5083071;28;20047;-67
2022/11/17 08:47:36;;;;;;;9.05;5.20;;;;;;;;;;5064643;28;20492;-69
2022/11/17 08:50:02;;;;;;;9.13;4.50;;;;;;;;;;5082165;28;20122;-67
2022/11/17 08:52:29;;;;;;;7.00;4.72;;;;;;;;;;5067001;28;20032;-68
2022/11/17 08:54:55;;;;;;;8.27;4.70;;;;;;;;;;5064669;28;20520;-67
2022/11/17 08:57:22;;;;;;;9.10;4.28;;;;;;;;;;5045446;28;20502;-67
2022/11/17 08:59:48;;;;;;;9.27;4.47;;;;;;;;;;5062856;28;20127;-68
2022/11/17 09:02:13;;;;;;;8.57;4.40;;;;;;;;;;5061023;28;20033;-67
2022/11/17 09:04:39;;;;;;;6.97;4.13;;;;;;;;;;5062089;28;20420;-69
2022/11/17 09:07:05;;;;;;;10.00;4.05;;;;;;;;;;5062836;28;20102;-68
2022/11/17 09:09:31;;;;;;;5.55;3.70;;;;;;;;;;5060768;28;20086;-68
2022/11/17 09:11:57;;;;;;;10.32;4.28;;;;;;;;;;5044767;28;20559;-68
2022/11/17 09:14:23;;;;;;;8.40;4.70;;;;;;;;;;5062485;28;20028;-67
2022/11/17 09:16:48;;;;;;;11.57;4.85;;;;;;;;;;5060931;28;20143;-68
2022/11/17 09:19:15;;;;;;;11.88;4.10;;;;;;;;;;5054547;28;20036;-68
2022/11/17 09:21:40;;;;;;;12.32;4.47;;;;;;;;;;5058320;28;20119;-68
2022/11/17 09:24:06;;;;;;;11.10;4.80;;;;;;;;;;5053269;28;20481;-69
2022/11/17 09:26:32;;;;;;;10.45;5.65;;;;;;;;;;5060869;28;20110;-68
2022/11/17 09:29:02;;;;;;;9.80;4.80;;;;;;;;;;5066819;28;20072;-67
2022/11/17 09:31:27;;;;;;;9.93;4.28;;;;;;;;;;5056453;28;20048;-68
2022/11/17 09:33:53;;;;;;;10.27;4.35;;;;;;;;;;5073249;28;20463;-68
2022/11/17 09:36:18;;;;;;;4.50;3.60;;;;;;;;;;5056302;28;20042;-67
2022/11/17 09:38:45;;;;;;;8.98;4.10;;;;;;;;;;5056131;28;20036;-68
2022/11/17 09:41:11;;;;;;;10.05;4.82;;;;;;;;;;5056080;28;20032;-68
2022/11/17 09:43:38;;;;;;;5.00;3.85;;;;;;;;;;5056385;28;20044;-67
2022/11/17 09:46:24;;;;;;;5.70;4.00;;;;;;;;;;5073583;28;20442;-67
2022/11/17 09:48:56;;;;;;;5.32;3.85;;;;;;;;;;5032409;28;20466;-67
2022/11/17 09:51:24;;;;;;;8.07;4.38;;;;;;;;;;5065118;28;20039;-67
2022/11/17 09:53:49;;;;;;;8.45;4.32;;;;;;;;;;5059299;28;20093;-67
2022/11/17 09:56:15;;;;;;;8.05;4.28;;;;;;;;;;5062261;28;20056;-68
2022/11/17 09:58:47;;;;;;;9.50;4.35;;;;;;;;;;5077704;28;20474;-68
2022/11/17 10:01:17;;;;;;;5.20;3.80;;;;;;;;;;5079283;28;20068;-68
2022/11/17 10:03:45;;;;;;;7.95;4.00;;;;;;;;;;5056483;28;20037;-67
2022/11/17 10:06:21;;;;;;;7.03;3.80;;;;;;;;;;5066260;28;20044;-66
2022/11/17 10:09:05;;;;;;;7.22;3.85;;;;;;;;;;5056942;28;20396;-67
2022/11/17 10:11:32;;;;;;;8.02;3.85;;;;;;;;;;5065666;28;20040;-66
2022/11/17 10:14:01;;;;;;;6.60;3.97;;;;;;;;;;5063815;28;20044;-67
2022/11/17 10:16:27;;;;;;;12.27;4.45;;;;;;;;;;5075236;28;20040;-67
2022/11/17 10:18:52;;;;;;;7.97;4.07;;;;;;;;;;5059543;28;20046;-68
2022/11/17 10:21:18;;;;;;;8.73;4.35;;;;;;;;;;5075635;28;20051;-69
2022/11/17 10:23:51;;;;;;;6.93;3.88;;;;;;;;;;5059225;28;20538;-67
2022/11/17 10:26:17;;;;;;;6.60;4.40;;;;;;;;;;5059395;28;20088;-68
2022/11/17 10:28:43;;;;;;;8.02;4.93;;;;;;;;;;5059144;28;20040;-67
2022/11/17 10:31:08;;;;;;;8.38;4.30;;;;;;;;;;5075640;28;20043;-69
2022/11/17 10:33:37;;;;;;;10.05;4.78;;;;;;;;;;5059599;28;20120;-67
2022/11/17 10:36:05;;;;;;;8.43;4.32;;;;;;;;;;5059326;28;20028;-68
2022/11/17 10:38:32;;;;;;;6.55;4.43;;;;;;;;;;5059170;28;20081;-68
2022/11/17 10:40:59;;;;;;;8.77;4.55;;;;;;;;;;5059003;28;20036;-67
2022/11/17 10:43:26;;;;;;;5.18;3.90;;;;;;;;;;5058940;28;20039;-67
2022/11/17 10:45:54;;;;;;;8.55;4.55;;;;;;;;;;5075221;28;20052;-67
2022/11/17 10:48:20;;;;;;;13.15;4.90;;;;;;;;;;5075431;28;20043;-67
2022/11/17 10:50:56;;;;;;;10.75;5.45;;;;;;;;;;5075369;28;20032;-66
2022/11/17 10:53:33;;;;;;;7.80;5.03;;;;;;;;;;5074282;28;20036;-67
2022/11/17 10:56:01;;;;;;;8.77;4.30;;;;;;;;;;5066934;28;20036;-68
2022/11/17 10:58:28;;;;;;;7.40;4.70;;;;;;;;;;5083325;28;20032;-69
2022/11/17 11:00:55;;;;;;;8.88;5.75;;;;;;;;;;5050205;28;20484;-68
2022/11/17 11:03:27;;;;;;;9.23;4.53;;;;;;;;;;5052173;28;20040;-68
2022/11/17 11:05:58;;;;;;;9.43;5.05;;;;;;;;;;5062906;28;20097;-68
2022/11/17 11:08:28;;;;;;;10.07;5.57;;;;;;;;;;5047612;28;20036;-68
2022/11/17 11:10:55;;;;;;;9.43;5.55;;;;;;;;;;5049433;28;20058;-66
2022/11/17 11:13:31;;;;;;;10.13;5.60;;;;;;;;;;5066470;28;20038;-67
2022/11/17 11:15:57;;;;;;;8.00;4.77;;;;;;;;;;5073757;28;20134;-66
2022/11/17 11:18:22;;;;;;;8.53;5.30;;;;;;;;;;5050964;28;20184;-67
2022/11/17 11:21:00;;;;;;;8.77;5.38;;;;;;;;;;5041569;28;20046;-67
2022/11/17 11:23:26;;;;;;;12.93;6.28;;;;;;;;;;5057968;28;20031;-67
2022/11/17 11:25:59;;;;;;;10.27;5.07;;;;;;;;;;5041169;28;20042;-67
2022/11/17 11:28:48;;;;;;;9.63;4.93;;;;;;;;;;5058013;28;20039;-67
2022/11/17 11:31:13;;;;;;;7.93;4.63;;;;;;;;;;5057687;28;20511;-68
2022/11/17 11:33:41;;;;;;;5.75;3.45;;;;;;;;;;5073563;28;20036;-67
2022/11/17 11:36:22;;;;;;;7.53;3.17;;;;;;;;;;5059276;28;20126;-68
2022/11/17 11:39:03;;;;;;;5.10;3.35;;;;;;;;;;5069985;28;20054;-67
2022/11/17 11:41:37;;;;;;;7.03;3.67;;;;;;;;;;5048678;28;20132;-67
2022/11/17 11:44:18;;;;;;;7.00;3.50;;;;;;;;;;5049805;28;20082;-66
2022/11/17 11:46:43;;;;;;;5.05;2.80;;;;;;;;;;5066920;28;20048;-67
2022/11/17 11:49:17;;;;;;;4.90;3.28;;;;;;;;;;5065158;28;20534;-67
2022/11/17 11:51:45;;;;;;;6.55;3.50;;;;;;;;;;5097269;28;20036;-67
2022/11/17 11:54:13;;;;;;;5.82;3.35;;;;;;;;;;5068272;28;20046;-67
2022/11/17 11:56:40;;;;;;;4.93;3.40;;;;;;;;;;5065285;28;20062;-67
2022/11/17 11:59:12;;;;;;;4.95;2.88;;;;;;;;;;5057773;28;20123;-67
2022/11/17 12:01:47;;;;;;;5.53;2.97;;;;;;;;;;5040331;28;20143;-67
2022/11/17 12:04:26;;;;;;;5.55;3.05;;;;;;;;;;5057908;28;20050;-67
2022/11/17 12:06:58;;;;;;;3.50;2.40;;;;;;;;;;5072689;28;20043;-66
2022/11/17 12:09:45;;;;;;;6.43;2.30;;;;;;;;;;5061076;28;20504;-67
2022/11/17 12:12:16;;;;;;;5.23;2.73;;;;;;;;;;5060129;28;20497;-67
2022/11/17 12:15:01;;;;;;;3.58;2.03;;;;;;;;;;5061079;28;20036;-66
2022/11/17 12:17:29;;;;;;;2.80;2.00;;;;;;;;;;5061265;28;20104;-66
2022/11/17 12:19:56;;;;;;;3.37;2.07;;;;;;;;;;5060631;28;20035;-66
2022/11/17 12:22:28;;;;;;;2.80;2.23;;;;;;;;;;5091558;28;20122;-67
2022/11/17 12:24:55;;;;;;;4.23;2.50;;;;;;;;;;5057965;28;20100;-66
2022/11/17 12:27:33;;;;;;;5.03;2.60;;;;;;;;;;5109229;28;20427;-66
2022/11/17 12:29:58;;;;;;;5.40;2.97;;;;;;;;;;5075131;28;20032;-65
2022/11/17 12:32:42;;;;;;;4.63;2.93;;;;;;;;;;5058718;28;20322;-66
2022/11/17 12:35:23;;;;;;;5.27;3.00;;;;;;;;;;5058525;28;20051;-66
2022/11/17 12:38:08;;;;;;;5.75;3.40;;;;;;;;;;5059478;28;20035;-66
2022/11/17 12:40:37;;;;;;;5.77;3.63;;;;;;;;;;5059347;28;20868;-66
2022/11/17 12:43:15;;;;;;;7.63;4.00;;;;;;;;;;5060063;28;20370;-65
2022/11/17 12:45:59;;;;;;;19.73;4.70;;;;;;;;;;5077068;28;20039;-65
2022/11/17 12:48:28;;;;;;;10.63;4.00;;;;;;;;;;5076869;28;20063;-65
2022/11/17 12:51:07;;;;;;;7.13;4.07;;;;;;;;;;5077279;28;20031;-65
2022/11/17 12:53:51;;;;;;;9.17;4.27;;;;;;;;;;5047040;28;20123;-66
2022/11/17 12:56:32;;;;;;;6.30;3.80;;;;;;;;;;5057416;28;20139;-65
2022/11/17 12:59:16;;;;;;;5.78;3.35;;;;;;;;;;5077109;28;20074;-66
2022/11/17 13:02:05;;;;;;;7.90;3.87;;;;;;;;;;5056448;28;20035;-66
2022/11/17 13:04:39;;;;;;;9.33;5.00;;;;;;;;;;5048506;28;20044;-65
2022/11/17 13:07:06;;;;;;;12.87;5.10;;;;;;;;;;5073545;28;20130;-65
2022/11/17 13:09:33;;;;;;;11.97;4.97;;;;;;;;;;5073398;28;20470;-65
2022/11/17 13:12:00;;;;;;;8.20;4.67;;;;;;;;;;5055560;28;20039;-65
2022/11/17 13:14:25;;;;;;;11.43;5.13;;;;;;;;;;5056253;28;20036;-65
2022/11/17 13:16:51;;;;;;;7.37;4.50;;;;;;;;;;5056195;28;20348;-65
2022/11/17 13:19:37;;;;;;;5.60;3.20;;;;;;;;;;5056454;28;20028;-65
2022/11/17 13:22:05;;;;;;;7.97;3.63;;;;;;;;;;5073235;28;20118;-67
2022/11/17 13:24:35;;;;;;;5.77;3.57;;;;;;;;;;5073423;28;20374;-67
2022/11/17 13:27:02;;;;;;;4.83;3.10;;;;;;;;;;5056337;28;20059;-67
2022/11/17 13:29:27;;;;;;;5.33;2.90;;;;;;;;;;5039623;28;20278;-68
2022/11/17 13:32:12;;;;;;;7.67;3.33;;;;;;;;;;5056024;28;20055;-67
2022/11/17 13:34:44;;;;;;;7.57;3.37;;;;;;;;;;5043578;28;20035;-67
2022/11/17 13:37:13;;;;;;;7.53;3.40;;;;;;;;;;5077446;28;20447;-68
2022/11/17 13:39:39;;;;;;;5.70;3.20;;;;;;;;;;5043677;28;20097;-67
2022/11/17 13:42:05;;;;;;;4.90;3.20;;;;;;;;;;5060454;28;20678;-68
2022/11/17 13:44:31;;;;;;;5.30;3.40;;;;;;;;;;5076994;28;20409;-68
2022/11/17 13:47:16;;;;;;;5.90;3.13;;;;;;;;;;5059926;28;20044;-68
2022/11/17 13:49:41;;;;;;;4.67;3.03;;;;;;;;;;5076154;28;20040;-69
2022/11/17 13:52:12;;;;;;;7.17;3.47;;;;;;;;;;5056383;28;20043;-67
2022/11/17 13:54:42;;;;;;;6.03;3.77;;;;;;;;;;5076746;28;20119;-68
2022/11/17 13:57:17;;;;;;;10.53;3.93;;;;;;;;;;5093206;28;20147;-70
2022/11/17 13:59:43;;;;;;;8.23;3.90;;;;;;;;;;5093453;28;20040;-67
2022/11/17 14:02:15;;;;;;;9.63;4.03;;;;;;;;;;5059719;28;20036;-69
2022/11/17 14:04:41;;;;;;;7.83;3.97;;;;;;;;;;5076409;28;20130;-67
2022/11/17 14:07:08;;;;;;;7.07;4.30;;;;;;;;;;5076370;28;20470;-67
2022/11/17 14:09:34;;;;;;;11.60;5.20;;;;;;;;;;5074090;28;20036;-67
2022/11/17 14:12:07;;;;;;;11.67;5.13;;;;;;;;;;5068309;28;20114;-67
2022/11/17 14:14:43;;;;;;;9.77;4.60;;;;;;;;;;5052143;28;20036;-67
2022/11/17 14:17:16;;;;;;;7.03;3.60;;;;;;;;;;5084370;28;20470;-67
2022/11/17 14:19:42;;;;;;;7.83;4.20;;;;;;;;;;5067020;28;20035;-67
2022/11/17 14:22:07;;;;;;;11.90;4.23;;;;;;;;;;5052325;28;20027;-69
2022/11/17 14:24:33;;;;;;;6.07;3.70;;;;;;;;;;5052158;28;20036;-67
2022/11/17 14:27:00;;;;;;;10.20;3.90;;;;;;;;;;5066974;28;20482;-67
2022/11/17 14:29:26;;;;;;;7.60;3.77;;;;;;;;;;5052241;28;20488;-67
2022/11/17 14:31:53;;;;;;;5.53;3.07;;;;;;;;;;5055428;28;20454;-66
2022/11/17 14:34:18;;;;;;;7.73;3.53;;;;;;;;;;5052270;28;20470;-66
2022/11/17 14:36:44;;;;;;;6.27;3.57;;;;;;;;;;5050489;28;20028;-66
2022/11/17 14:39:14;;;;;;;7.10;3.20;;;;;;;;;;5050940;28;20509;-67
2022/11/17 14:41:40;;;;;;;7.20;3.40;;;;;;;;;;5055636;28;20070;-66
2022/11/17 14:44:07;;;;;;;7.37;4.17;;;;;;;;;;5052584;28;20032;-67
2022/11/17 14:46:33;;;;;;;11.43;3.97;;;;;;;;;;5041895;28;20055;-66
2022/11/17 14:48:59;;;;;;;9.70;4.00;;;;;;;;;;5058802;28;20032;-67
2022/11/17 14:51:25;;;;;;;6.50;3.73;;;;;;;;;;5042459;28;20115;-66
2022/11/17 14:53:51;;;;;;;9.20;3.87;;;;;;;;;;5042051;28;20039;-66
2022/11/17 14:56:18;;;;;;;6.10;3.83;;;;;;;;;;5042028;28;20056;-66
2022/11/17 14:58:46;;;;;;;11.20;4.13;;;;;;;;;;5080052;28;20039;-66
2022/11/17 15:01:16;;;;;;;8.33;3.30;;;;;;;;;;5067654;28;20047;-66
2022/11/17 15:03:41;;;;;;;7.97;3.20;;;;;;;;;;5066377;28;20032;-65